Elk Ranch, Arkansas
Current Conditions -  °F | °C
As of 3:57 AM on Thursday 23 Oct 2014 (Local Time) from KROG Reporting Station
Clear Clear  
Wind Chill: 55°   Ceiling: Unl
Heat Index: 55°   Visibility: 10mi
Dew Point: 50°   Wind: 6mph
Humidity: 83%   Direction: 150°SSE
Pressure: 30.17"   Gusts: NA
Location:  36.4036°N, 93.7443°W
Report Text: KROG 230857Z AUTO 15005KT 10SM CLR 13/10 A3017 RMK AO2 SLP209 T01280100 52003
Loading
Personal Weather Stations






























Interactive Weather Map
Tropical Storm Tracking
New forecast layout! Learn more

10-Day Weather Forecast

Advertisements
Track Severe Weather on mobile